createdAt,value
2023-09-23T00:01:59.118Z,0.30
2023-09-23T00:04:31.128Z,0.57
2023-09-23T00:07:01.378Z,0.57
2023-09-23T00:09:31.717Z,0.37
2023-09-23T00:12:01.972Z,0.60
2023-09-23T00:14:34.990Z,0.40
2023-09-23T00:17:05.349Z,0.57
2023-09-23T00:19:35.860Z,0.30
2023-09-23T00:22:07.272Z,1.80
2023-09-23T00:24:38.376Z,1.85
2023-09-23T00:29:42.130Z,0.75
2023-09-23T00:32:14.027Z,0.90
2023-09-23T00:34:44.759Z,0.35
2023-09-23T00:37:14.980Z,1.33
2023-09-23T00:39:45.228Z,2.28
2023-09-23T00:42:17.173Z,0.67
2023-09-23T00:44:50.370Z,0.73
2023-09-23T00:47:22.400Z,2.08
2023-09-23T00:49:53.928Z,0.47
2023-09-23T00:52:24.532Z,0.30
2023-09-23T00:54:55.631Z,0.52
2023-09-23T00:59:58.812Z,0.43
2023-09-23T01:02:30.411Z,3.17
2023-09-23T01:05:00.731Z,0.52
2023-09-23T01:07:32.755Z,0.23
2023-09-23T01:10:04.834Z,0.30
2023-09-23T01:12:35.328Z,0.63
2023-09-23T01:15:19.521Z,0.40
2023-09-23T01:17:53.565Z,0.47
2023-09-23T01:20:23.827Z,0.45
2023-09-23T01:22:59.470Z,0.60
2023-09-23T01:25:29.850Z,0.63
2023-09-23T01:27:59.971Z,0.40
2023-09-23T01:30:30.707Z,1.13
2023-09-23T01:33:01.195Z,0.43
2023-09-23T01:35:33.061Z,0.63
2023-09-23T01:38:06.871Z,0.45
2023-09-23T01:40:41.001Z,0.73
2023-09-23T01:43:11.249Z,0.45
2023-09-23T01:45:41.484Z,0.93
2023-09-23T01:48:12.309Z,0.50
2023-09-23T01:50:43.174Z,1.47
2023-09-23T01:53:20.697Z,1.48
2023-09-23T01:55:51.037Z,1.27
2023-09-23T01:58:21.422Z,0.57
2023-09-23T02:00:52.110Z,1.13
2023-09-23T02:03:24.301Z,3.45
2023-09-23T02:05:54.978Z,0.68
2023-09-23T02:08:27.777Z,2.10
2023-09-23T02:10:58.025Z,0.55
2023-09-23T02:13:29.782Z,5.87
2023-09-23T02:16:01.121Z,1.23
2023-09-23T02:18:31.407Z,1.13
2023-09-23T02:21:01.589Z,0.67
2023-09-23T02:23:34.690Z,0.95
2023-09-23T02:26:05.102Z,0.65
2023-09-23T02:28:35.333Z,1.90
2023-09-23T02:31:05.548Z,0.82
2023-09-23T02:33:35.917Z,0.80
2023-09-23T02:36:07.096Z,1.03
2023-09-23T02:41:09.792Z,2.00
2023-09-23T02:43:41.622Z,2.17
2023-09-23T02:46:11.898Z,3.70
2023-09-23T02:48:42.140Z,4.60
2023-09-23T02:51:14.381Z,1.43
2023-09-23T02:53:47.168Z,2.30
2023-09-23T02:56:17.426Z,1.33
2023-09-23T02:58:49.584Z,1.00
2023-09-23T03:01:20.288Z,0.50
2023-09-23T03:03:50.882Z,4.65
2023-09-23T03:06:21.460Z,0.95
2023-09-23T03:08:55.950Z,2.42
2023-09-23T03:11:28.380Z,2.47
2023-09-23T03:13:58.691Z,3.38
2023-09-23T03:16:32.705Z,0.87
2023-09-23T03:19:12.333Z,1.27
2023-09-23T03:21:44.288Z,1.13
2023-09-23T03:24:17.157Z,1.95
2023-09-23T03:26:48.078Z,2.10
2023-09-23T03:29:19.972Z,1.50
2023-09-23T03:31:50.368Z,1.38
2023-09-23T03:34:23.091Z,1.30
2023-09-23T03:36:55.101Z,1.15
2023-09-23T03:39:28.380Z,2.35
2023-09-23T03:41:58.663Z,2.25
2023-09-23T03:44:28.783Z,2.63
2023-09-23T03:47:01.718Z,1.92
2023-09-23T03:49:32.569Z,2.75
2023-09-23T03:52:07.107Z,1.77
2023-09-23T03:54:39.864Z,1.48
2023-09-23T03:57:10.294Z,1.73
2023-09-23T03:59:40.866Z,1.75
2023-09-23T04:02:11.094Z,2.05
2023-09-23T04:04:41.853Z,2.13
2023-09-23T04:07:12.011Z,1.17
2023-09-23T04:09:44.823Z,1.90
2023-09-23T04:12:15.011Z,3.03
2023-09-23T04:14:45.375Z,2.78
2023-09-23T04:17:16.264Z,3.70
2023-09-23T04:19:46.632Z,1.48
2023-09-23T04:22:16.862Z,3.17
2023-09-23T04:24:49.707Z,2.33
2023-09-23T04:27:21.528Z,2.80
2023-09-23T04:29:51.774Z,2.90
2023-09-23T04:32:22.047Z,3.27
2023-09-23T04:34:52.329Z,1.00
2023-09-23T04:37:22.508Z,2.40
2023-09-23T04:39:55.292Z,4.93
2023-09-23T04:42:25.621Z,2.22
2023-09-23T04:44:57.076Z,3.63
2023-09-23T04:47:28.096Z,3.90
2023-09-23T04:50:00.316Z,2.22
2023-09-23T04:52:31.338Z,2.97
2023-09-23T04:55:04.458Z,1.30
2023-09-23T04:57:35.265Z,1.45
2023-09-23T05:00:06.301Z,3.75
2023-09-23T05:02:37.518Z,3.17
2023-09-23T05:05:11.471Z,5.80
2023-09-23T05:07:42.012Z,4.57
2023-09-23T05:10:15.660Z,3.05
2023-09-23T05:12:47.045Z,3.17
2023-09-23T05:15:18.730Z,2.72
2023-09-23T05:17:50.783Z,4.20
2023-09-23T05:20:21.832Z,8.98
2023-09-23T05:25:26.236Z,6.47
2023-09-23T05:27:58.357Z,5.80
2023-09-23T05:30:30.255Z,6.05
2023-09-23T05:33:00.497Z,4.10
2023-09-23T05:35:31.873Z,4.30
2023-09-23T05:38:02.038Z,5.63
2023-09-23T05:40:38.171Z,3.22
2023-09-23T05:43:08.553Z,2.97
2023-09-23T05:45:40.121Z,4.75
2023-09-23T05:48:11.432Z,7.80
2023-09-23T05:50:41.934Z,3.17
2023-09-23T05:53:12.159Z,2.47
2023-09-23T05:55:45.388Z,4.07
2023-09-23T05:58:15.922Z,2.78
2023-09-23T06:00:47.481Z,1.58
2023-09-23T06:03:19.191Z,3.72
2023-09-23T06:05:49.504Z,1.90
2023-09-23T06:08:19.820Z,3.67
2023-09-23T06:10:53.769Z,1.63
2023-09-23T06:13:24.069Z,2.63
2023-09-23T06:15:54.392Z,7.23
2023-09-23T06:18:25.241Z,2.47
2023-09-23T06:21:01.528Z,3.72
2023-09-23T06:23:32.098Z,3.58
2023-09-23T06:26:07.616Z,4.75
2023-09-23T06:28:38.389Z,3.22
2023-09-23T06:31:11.577Z,5.38
2023-09-23T06:33:41.978Z,8.02
2023-09-23T06:36:12.313Z,8.15
2023-09-23T06:38:42.969Z,4.77
2023-09-23T06:41:16.194Z,9.27
2023-09-23T06:43:46.664Z,10.95
2023-09-23T06:46:17.125Z,10.07
2023-09-23T06:48:47.577Z,8.03
2023-09-23T06:51:17.858Z,10.13
2023-09-23T06:53:50.401Z,17.07
2023-09-23T06:56:23.722Z,11.00
2023-09-23T06:58:54.298Z,10.00
2023-09-23T07:01:25.516Z,7.78
2023-09-23T07:03:56.100Z,7.38
2023-09-23T07:06:26.683Z,10.15
2023-09-23T07:08:57.124Z,5.10
2023-09-23T07:11:30.103Z,6.65
2023-09-23T07:14:02.330Z,4.45
2023-09-23T07:16:32.801Z,5.60
2023-09-23T07:19:03.372Z,1.60
2023-09-23T07:21:33.904Z,3.05
2023-09-23T07:24:07.677Z,3.03
2023-09-23T07:26:42.673Z,4.93
2023-09-23T07:29:13.712Z,4.38
2023-09-23T07:31:44.135Z,7.32
2023-09-23T07:34:15.639Z,3.90
2023-09-23T07:36:46.781Z,5.45
2023-09-23T07:41:50.263Z,6.40
2023-09-23T07:44:20.675Z,4.88
2023-09-23T07:46:52.271Z,8.98
2023-09-23T07:49:22.607Z,6.20
2023-09-23T07:51:54.730Z,4.03
2023-09-23T07:54:25.150Z,4.20
2023-09-23T07:56:58.402Z,4.32
2023-09-23T07:59:28.902Z,4.25
2023-09-23T08:01:59.565Z,4.05
2023-09-23T08:04:29.955Z,6.25
2023-09-23T08:07:00.299Z,2.60
2023-09-23T08:09:30.658Z,6.70
2023-09-23T08:12:03.647Z,1.55
2023-09-23T08:14:34.304Z,3.13
2023-09-23T08:17:04.819Z,4.60
2023-09-23T08:19:35.315Z,2.40
2023-09-23T08:22:05.999Z,4.15
2023-09-23T08:24:36.493Z,4.85
2023-09-23T08:27:09.382Z,8.63
2023-09-23T08:29:39.656Z,14.30
2023-09-23T08:32:10.229Z,8.17
2023-09-23T08:34:43.041Z,9.75
2023-09-23T08:37:14.777Z,4.43
2023-09-23T08:39:45.303Z,8.98
2023-09-23T08:42:20.843Z,10.20
2023-09-23T08:44:54.071Z,12.45
2023-09-23T08:47:24.886Z,5.35
2023-09-23T08:49:56.521Z,11.50
2023-09-23T08:52:29.136Z,8.75
2023-09-23T08:55:00.331Z,4.60
2023-09-23T08:57:33.429Z,5.57
2023-09-23T09:00:09.274Z,13.13
2023-09-23T09:02:39.814Z,7.38
2023-09-23T09:05:10.867Z,15.40
2023-09-23T09:10:12.521Z,13.52
2023-09-23T09:12:45.647Z,18.88
2023-09-23T09:15:16.045Z,5.75
2023-09-23T09:17:47.025Z,14.52
2023-09-23T09:20:17.881Z,8.00
2023-09-23T09:22:50.072Z,10.35
2023-09-23T09:25:22.705Z,5.32
2023-09-23T09:27:56.042Z,7.25
2023-09-23T09:30:26.535Z,13.55
2023-09-23T09:33:03.828Z,7.28
2023-09-23T09:35:37.821Z,7.55
2023-09-23T09:38:17.597Z,6.03
2023-09-23T09:40:50.494Z,10.57
2023-09-23T09:43:26.170Z,4.38
2023-09-23T09:45:57.831Z,8.82
2023-09-23T09:48:31.898Z,13.65
2023-09-23T09:51:03.284Z,34.78
2023-09-23T09:53:34.653Z,38.22
2023-09-23T09:56:06.299Z,17.75
2023-09-23T09:58:45.091Z,20.10
2023-09-23T10:01:19.444Z,23.52
2023-09-23T10:03:53.272Z,18.90
2023-09-23T10:06:24.633Z,19.40
2023-09-23T10:08:55.429Z,12.75
2023-09-23T10:11:36.469Z,18.52
2023-09-23T10:16:54.287Z,21.13
2023-09-23T10:19:34.421Z,28.60
2023-09-23T10:22:19.326Z,30.15
2023-09-23T10:25:06.144Z,15.63
2023-09-23T10:27:38.393Z,21.23
2023-09-23T10:30:12.487Z,12.18
2023-09-23T10:32:47.828Z,18.50
2023-09-23T10:35:25.733Z,13.55
2023-09-23T10:37:56.780Z,8.30
2023-09-23T10:40:27.331Z,10.70
2023-09-23T10:42:57.730Z,8.50
2023-09-23T10:45:30.709Z,10.23
2023-09-23T10:48:01.253Z,11.23
2023-09-23T10:50:31.940Z,11.13
2023-09-23T10:53:02.549Z,9.10
2023-09-23T10:55:36.269Z,13.50
2023-09-23T10:58:08.438Z,5.75
2023-09-23T11:00:42.185Z,9.15
2023-09-23T11:03:14.377Z,9.88
2023-09-23T11:05:45.578Z,13.10
2023-09-23T11:10:47.941Z,2.57
2023-09-23T11:13:19.283Z,5.95
2023-09-23T11:15:52.340Z,7.18
2023-09-23T11:18:23.070Z,2.30
2023-09-23T11:20:53.673Z,4.75
2023-09-23T11:23:23.892Z,5.13
2023-09-23T11:25:55.629Z,6.20
2023-09-23T11:28:27.213Z,2.45
2023-09-23T11:31:01.370Z,6.00
2023-09-23T11:33:31.753Z,4.50
2023-09-23T11:36:02.087Z,5.00
2023-09-23T11:38:39.095Z,3.60
2023-09-23T11:41:09.553Z,10.20
2023-09-23T11:43:39.921Z,2.90
2023-09-23T11:46:13.333Z,4.83
2023-09-23T11:48:48.859Z,2.83
2023-09-23T11:51:22.798Z,3.78
2023-09-23T11:53:54.097Z,4.57
2023-09-23T11:56:26.069Z,4.68
2023-09-23T11:59:07.659Z,5.65
2023-09-23T12:01:43.166Z,10.35
2023-09-23T12:04:13.724Z,17.35
2023-09-23T12:06:46.839Z,18.23
2023-09-23T12:09:17.955Z,6.45
2023-09-23T12:14:22.143Z,17.05
2023-09-23T12:16:55.369Z,20.08
2023-09-23T12:19:27.505Z,20.52
2023-09-23T12:21:59.386Z,13.45
2023-09-23T12:24:30.404Z,10.55
2023-09-23T12:27:01.297Z,8.45
2023-09-23T12:29:31.767Z,9.55
2023-09-23T12:32:05.680Z,26.55
2023-09-23T12:34:37.180Z,15.20
2023-09-23T12:37:07.623Z,23.50
2023-09-23T12:39:38.176Z,29.63
2023-09-23T12:42:09.162Z,17.55
2023-09-23T12:44:43.073Z,30.98
2023-09-23T12:47:16.499Z,29.63
2023-09-23T12:49:50.808Z,17.23
2023-09-23T12:52:21.402Z,12.82
2023-09-23T12:54:52.074Z,13.57
2023-09-23T12:57:22.955Z,17.23
2023-09-23T12:59:53.564Z,8.18
2023-09-23T13:02:26.684Z,5.93
2023-09-23T13:04:57.519Z,13.88
2023-09-23T13:07:27.978Z,12.98
2023-09-23T13:09:58.436Z,14.88
2023-09-23T13:12:29.819Z,8.57
2023-09-23T13:15:00.262Z,23.75
2023-09-23T13:17:33.659Z,8.27
2023-09-23T13:20:04.578Z,16.73
2023-09-23T13:22:34.940Z,16.23
2023-09-23T13:25:05.243Z,18.75
2023-09-23T13:27:35.890Z,14.07
2023-09-23T13:30:06.383Z,27.13
2023-09-23T13:32:39.662Z,23.67
2023-09-23T13:35:12.803Z,13.95
2023-09-23T13:37:44.579Z,23.05
2023-09-23T13:40:15.342Z,25.77
2023-09-23T13:42:45.701Z,12.38
2023-09-23T13:45:15.998Z,14.93
2023-09-23T13:47:49.460Z,14.93
2023-09-23T13:50:20.022Z,13.23
2023-09-23T13:52:51.100Z,17.38
2023-09-23T13:55:22.542Z,7.05
2023-09-23T13:57:53.220Z,14.27
2023-09-23T14:00:24.030Z,15.35
2023-09-23T14:02:57.748Z,21.23
2023-09-23T14:05:28.466Z,11.50
2023-09-23T14:07:58.922Z,15.75
2023-09-23T14:10:29.933Z,14.05
2023-09-23T14:13:00.302Z,30.67
2023-09-23T14:15:32.001Z,22.67
2023-09-23T14:18:07.633Z,19.58
2023-09-23T14:20:39.385Z,15.88
2023-09-23T14:23:10.086Z,11.38
2023-09-23T14:25:40.523Z,7.75
2023-09-23T14:28:10.838Z,13.55
2023-09-23T14:30:41.102Z,10.87
2023-09-23T14:33:14.145Z,14.25
2023-09-23T14:35:44.732Z,9.77
2023-09-23T14:38:15.095Z,17.40
2023-09-23T14:40:45.626Z,32.77
2023-09-23T14:43:15.972Z,29.00
2023-09-23T14:45:46.445Z,26.03
2023-09-23T14:48:19.585Z,28.75
2023-09-23T14:50:50.681Z,15.25
2023-09-23T14:55:51.610Z,18.85
2023-09-23T14:58:21.964Z,14.85
2023-09-23T15:00:52.705Z,22.05
2023-09-23T15:03:26.665Z,12.68
2023-09-23T15:05:57.481Z,10.77
2023-09-23T15:08:27.961Z,9.00
2023-09-23T15:10:58.611Z,15.82
2023-09-23T15:13:29.118Z,30.35
2023-09-23T15:16:03.750Z,29.90
2023-09-23T15:18:37.297Z,19.08
2023-09-23T15:21:08.565Z,16.70
2023-09-23T15:23:39.834Z,8.15
2023-09-23T15:26:11.048Z,7.93
2023-09-23T15:28:42.190Z,9.15
2023-09-23T15:33:47.875Z,9.00
2023-09-23T15:36:19.421Z,5.28
2023-09-23T15:38:50.395Z,7.32
2023-09-23T15:43:51.276Z,10.38
2023-09-23T15:46:21.867Z,6.15
2023-09-23T15:48:54.819Z,10.63
2023-09-23T15:51:25.327Z,7.72
2023-09-23T15:53:56.675Z,7.13
2023-09-23T15:56:28.305Z,3.28
2023-09-23T15:58:58.559Z,7.50
2023-09-23T16:01:29.461Z,5.53
2023-09-23T16:04:02.650Z,4.85
2023-09-23T16:06:33.412Z,1.98
2023-09-23T16:09:05.500Z,1.67
2023-09-23T16:11:36.263Z,2.75
2023-09-23T16:14:07.773Z,8.10
2023-09-23T16:16:38.449Z,4.20
2023-09-23T16:19:11.471Z,3.35
2023-09-23T16:21:41.999Z,17.20
2023-09-23T16:24:12.650Z,6.88
2023-09-23T16:26:43.838Z,7.65
2023-09-23T16:29:14.740Z,6.68
2023-09-23T16:31:46.285Z,6.47
2023-09-23T16:34:19.603Z,8.20
2023-09-23T16:36:50.802Z,3.63
2023-09-23T16:39:22.102Z,8.77
2023-09-23T16:41:52.568Z,11.10
2023-09-23T16:44:25.114Z,12.30
2023-09-23T16:46:58.676Z,6.35
2023-09-23T16:49:31.863Z,12.57
2023-09-23T16:52:03.315Z,3.05
2023-09-23T16:54:36.697Z,6.47
2023-09-23T16:57:07.396Z,5.80
2023-09-23T16:59:38.670Z,16.08
2023-09-23T17:02:15.128Z,6.32
2023-09-23T17:04:50.459Z,21.95
2023-09-23T17:07:24.296Z,39.92
2023-09-23T17:09:57.505Z,31.15
2023-09-23T17:12:28.228Z,34.08
2023-09-23T17:14:58.796Z,28.42
2023-09-23T17:17:30.964Z,20.67
2023-09-23T17:20:05.435Z,31.35
2023-09-23T17:22:38.752Z,49.47
2023-09-23T17:25:10.195Z,35.38
2023-09-23T17:27:40.579Z,36.03
2023-09-23T17:30:12.544Z,28.83
2023-09-23T17:32:43.702Z,31.10
2023-09-23T17:35:17.309Z,28.35
2023-09-23T17:37:47.771Z,19.30
2023-09-23T17:40:18.734Z,19.92
2023-09-23T17:42:52.657Z,24.98
2023-09-23T17:45:23.735Z,29.40
2023-09-23T17:50:30.253Z,26.13
2023-09-23T17:53:01.613Z,17.25
2023-09-23T17:55:32.308Z,23.23
2023-09-23T17:58:03.373Z,25.58
2023-09-23T18:03:05.454Z,23.75
2023-09-23T18:05:41.622Z,20.45
2023-09-23T18:08:14.193Z,21.42
2023-09-23T18:10:45.180Z,21.42
2023-09-23T18:13:17.694Z,32.08
2023-09-23T18:15:51.073Z,31.70
2023-09-23T18:18:23.646Z,33.67
2023-09-23T18:21:00.453Z,25.90
2023-09-23T18:23:31.447Z,24.60
2023-09-23T18:28:32.365Z,22.20
2023-09-23T18:31:04.544Z,24.52
2023-09-23T18:33:35.330Z,23.50
2023-09-23T18:36:09.366Z,30.98
2023-09-23T18:38:40.319Z,20.92
2023-09-23T18:41:11.221Z,20.02
2023-09-23T18:43:41.786Z,20.13
2023-09-23T18:46:12.686Z,23.13
2023-09-23T18:48:43.775Z,15.43
2023-09-23T18:53:47.859Z,20.88
2023-09-23T18:58:49.610Z,32.35
2023-09-23T19:03:51.494Z,22.23
2023-09-23T19:06:25.016Z,26.33
2023-09-23T19:08:55.606Z,17.33
2023-09-23T19:11:31.384Z,27.02
2023-09-23T19:14:02.581Z,20.05
2023-09-23T19:16:33.337Z,19.20
2023-09-23T19:19:04.418Z,18.33
2023-09-23T19:24:13.037Z,12.07
2023-09-23T19:26:56.327Z,12.02
2023-09-23T19:29:28.192Z,12.88
2023-09-23T19:32:03.591Z,15.07
2023-09-23T19:34:34.635Z,10.48
2023-09-23T19:39:43.728Z,28.38
2023-09-23T19:42:18.968Z,8.27
2023-09-23T19:44:51.181Z,13.27
2023-09-23T19:47:25.885Z,11.75
2023-09-23T19:49:59.564Z,9.68
2023-09-23T19:52:38.959Z,7.40
2023-09-23T19:55:10.266Z,8.82
2023-09-23T19:57:42.478Z,8.07
2023-09-23T20:00:17.391Z,9.60
2023-09-23T20:02:49.346Z,7.03
2023-09-23T20:05:22.274Z,10.50
2023-09-23T20:07:59.162Z,12.15
2023-09-23T20:10:32.487Z,9.90
2023-09-23T20:13:08.250Z,13.10
2023-09-23T20:15:42.491Z,15.73
2023-09-23T20:18:13.834Z,7.97
2023-09-23T20:20:49.584Z,28.92
2023-09-23T20:23:27.481Z,7.82
2023-09-23T20:26:00.255Z,21.35
2023-09-23T20:28:31.718Z,11.82
2023-09-23T20:31:03.181Z,9.93
2023-09-23T20:33:34.062Z,11.80
2023-09-23T20:36:04.890Z,13.68
2023-09-23T20:38:40.729Z,9.05
2023-09-23T20:41:11.649Z,9.23
2023-09-23T20:43:44.130Z,5.40
2023-09-23T20:46:15.217Z,6.60
2023-09-23T20:51:18.167Z,5.78
2023-09-23T20:53:52.181Z,8.65
2023-09-23T20:56:24.379Z,5.03
2023-09-23T20:58:57.967Z,7.10
2023-09-23T21:01:28.739Z,7.40
2023-09-23T21:04:00.068Z,4.30
2023-09-23T21:06:37.949Z,3.92
2023-09-23T21:09:17.201Z,6.82
2023-09-23T21:11:47.887Z,7.03
2023-09-23T21:16:51.458Z,15.05
2023-09-23T21:19:23.304Z,8.35
2023-09-23T21:21:54.476Z,9.02
2023-09-23T21:24:28.419Z,9.40
2023-09-23T21:26:59.071Z,12.70
2023-09-23T21:29:29.738Z,7.97
2023-09-23T21:32:01.808Z,9.70
2023-09-23T21:34:34.100Z,8.52
2023-09-23T21:37:05.249Z,9.65
2023-09-23T21:42:13.368Z,8.85
2023-09-23T21:44:44.235Z,10.35
2023-09-23T21:47:18.312Z,6.03
2023-09-23T21:49:49.676Z,4.78
2023-09-23T21:52:20.453Z,7.90
2023-09-23T21:54:53.865Z,4.18
2023-09-23T21:57:24.481Z,4.43
2023-09-23T21:59:57.884Z,3.63
2023-09-23T22:02:29.490Z,3.75
2023-09-23T22:05:01.386Z,4.15
2023-09-23T22:07:33.092Z,6.10
2023-09-23T22:10:06.526Z,3.88
2023-09-23T22:12:37.722Z,5.78
2023-09-23T22:15:09.792Z,3.63
2023-09-23T22:17:40.645Z,3.30
2023-09-23T22:20:16.835Z,3.25
2023-09-23T22:22:47.546Z,3.75
2023-09-23T22:25:22.400Z,4.72
2023-09-23T22:27:58.692Z,3.10
2023-09-23T22:30:32.462Z,4.20
2023-09-23T22:33:07.001Z,3.03
2023-09-23T22:35:47.122Z,2.10
2023-09-23T22:38:18.630Z,4.03
2023-09-23T22:40:52.938Z,3.90
2023-09-23T22:43:23.311Z,2.38
2023-09-23T22:45:53.748Z,2.40
2023-09-23T22:48:25.098Z,3.55
2023-09-23T22:50:56.381Z,2.88
2023-09-23T22:53:27.581Z,4.90
2023-09-23T22:56:00.563Z,1.77
2023-09-23T22:58:30.812Z,3.17
2023-09-23T23:01:01.942Z,2.57
2023-09-23T23:06:08.381Z,2.45
2023-09-23T23:08:39.690Z,4.32
2023-09-23T23:11:16.503Z,2.58
2023-09-23T23:13:47.215Z,2.90
2023-09-23T23:16:19.794Z,1.98
2023-09-23T23:18:52.675Z,2.90
2023-09-23T23:21:23.280Z,2.35
2023-09-23T23:23:53.768Z,2.28
2023-09-23T23:26:26.993Z,2.10
2023-09-23T23:28:57.740Z,2.13
2023-09-23T23:31:28.979Z,2.80
2023-09-23T23:34:00.823Z,3.15
2023-09-23T23:36:32.291Z,3.35
2023-09-23T23:39:07.126Z,3.35
2023-09-23T23:41:40.020Z,2.13
2023-09-23T23:44:10.744Z,4.20
2023-09-23T23:46:43.304Z,1.77
2023-09-23T23:49:15.603Z,1.92
2023-09-23T23:51:46.289Z,1.42
2023-09-23T23:54:17.786Z,2.33
2023-09-23T23:56:51.058Z,1.83
2023-09-23T23:59:21.323Z,1.52
